createdAt,value
2023-01-05T00:01:22.019Z,14.14
2023-01-05T00:03:48.867Z,14.14
2023-01-05T00:06:17.931Z,14.13
2023-01-05T00:08:45.198Z,14.13
2023-01-05T00:11:36.594Z,14.13
2023-01-05T00:14:21.796Z,14.14
2023-01-05T00:17:07.860Z,14.12
2023-01-05T00:19:54.079Z,14.11
2023-01-05T00:22:31.932Z,14.09
2023-01-05T00:25:02.238Z,14.09
2023-01-05T00:27:31.979Z,14.10
2023-01-05T00:29:59.329Z,14.11
2023-01-05T00:32:27.262Z,14.10
2023-01-05T00:34:58.204Z,14.10
2023-01-05T00:37:27.901Z,14.08
2023-01-05T00:39:54.683Z,14.10
2023-01-05T00:42:21.499Z,14.09
2023-01-05T00:44:48.259Z,14.10
2023-01-05T00:47:14.922Z,14.09
2023-01-05T00:49:41.733Z,14.09
2023-01-05T00:52:08.755Z,14.09
2023-01-05T00:54:35.659Z,14.08
2023-01-05T00:57:02.738Z,14.09
2023-01-05T00:59:29.562Z,14.09
2023-01-05T01:01:56.461Z,14.09
2023-01-05T01:04:23.583Z,14.10
2023-01-05T01:06:50.291Z,14.10
2023-01-05T01:09:18.569Z,14.10
2023-01-05T01:11:46.148Z,14.10
2023-01-05T01:14:13.922Z,14.09
2023-01-05T01:16:42.132Z,14.08
2023-01-05T01:19:12.477Z,14.09
2023-01-05T01:21:40.529Z,14.10
2023-01-05T01:24:07.491Z,14.11
2023-01-05T01:26:34.523Z,14.10
2023-01-05T01:29:01.632Z,14.09
2023-01-05T01:31:28.323Z,14.09
2023-01-05T01:33:55.089Z,14.10
2023-01-05T01:36:21.815Z,14.09
2023-01-05T01:38:48.596Z,14.08
2023-01-05T01:41:15.601Z,14.08
2023-01-05T01:43:49.554Z,14.06
2023-01-05T01:46:19.706Z,14.08
2023-01-05T01:49:05.195Z,14.07
2023-01-05T01:51:38.083Z,14.08
2023-01-05T01:54:07.743Z,14.07
2023-01-05T01:56:47.703Z,14.06
2023-01-05T01:59:17.429Z,14.08
2023-01-05T02:01:44.787Z,14.08
2023-01-05T02:04:12.012Z,14.08
2023-01-05T02:06:39.996Z,14.10
2023-01-05T02:09:06.905Z,14.09
2023-01-05T02:11:43.102Z,14.07
2023-01-05T02:14:32.725Z,14.09
2023-01-05T02:17:38.965Z,14.09
2023-01-05T02:20:39.287Z,14.08
2023-01-05T02:23:15.286Z,14.09
2023-01-05T02:26:12.874Z,14.08
2023-01-05T02:28:50.044Z,14.08
2023-01-05T02:31:36.783Z,14.07
2023-01-05T02:34:14.742Z,14.09
2023-01-05T02:36:54.157Z,14.09
2023-01-05T02:39:32.527Z,14.09
2023-01-05T02:42:05.846Z,14.09
2023-01-05T02:44:34.198Z,14.11
2023-01-05T02:47:03.671Z,14.10
2023-01-05T02:49:33.683Z,14.12
2023-01-05T02:52:01.868Z,14.13
2023-01-05T02:54:42.138Z,14.12
2023-01-05T02:57:16.896Z,14.13
2023-01-05T02:59:51.832Z,14.12
2023-01-05T03:02:22.064Z,14.13
2023-01-05T03:04:56.079Z,14.13
2023-01-05T03:07:26.925Z,14.14
2023-01-05T03:09:54.767Z,14.13
2023-01-05T03:12:45.061Z,14.13
2023-01-05T03:15:18.670Z,14.22
2023-01-05T03:17:51.619Z,14.15
2023-01-05T03:20:23.338Z,14.12
2023-01-05T03:23:14.402Z,14.12
2023-01-05T03:25:59.765Z,14.13
2023-01-05T03:28:59.071Z,14.12
2023-01-05T03:31:56.910Z,14.10
2023-01-05T03:34:54.519Z,14.11
2023-01-05T03:37:27.629Z,14.13
2023-01-05T03:39:54.979Z,14.13
2023-01-05T03:42:22.958Z,14.14
2023-01-05T03:44:50.308Z,14.15
2023-01-05T03:47:18.123Z,14.16
2023-01-05T03:49:45.721Z,14.16
2023-01-05T03:52:12.908Z,14.17
2023-01-05T03:54:41.921Z,14.18
2023-01-05T03:57:08.694Z,14.19
2023-01-05T03:59:35.473Z,14.19
2023-01-05T04:02:04.794Z,14.19
2023-01-05T04:04:32.585Z,14.18
2023-01-05T04:07:01.169Z,14.19
2023-01-05T04:09:40.767Z,14.19
2023-01-05T04:12:14.271Z,14.19
2023-01-05T04:14:44.389Z,14.19
2023-01-05T04:17:11.607Z,14.18
2023-01-05T04:19:39.178Z,14.19
2023-01-05T04:22:05.914Z,14.20
2023-01-05T04:24:33.465Z,14.19
2023-01-05T04:27:03.284Z,14.21
2023-01-05T04:29:30.292Z,14.21
2023-01-05T04:31:59.000Z,14.21
2023-01-05T04:34:25.981Z,14.21
2023-01-05T04:36:55.619Z,14.22
2023-01-05T04:39:22.577Z,14.22
2023-01-05T04:41:50.623Z,14.22
2023-01-05T04:44:19.981Z,14.21
2023-01-05T04:46:48.314Z,14.22
2023-01-05T04:49:16.294Z,14.20
2023-01-05T04:51:43.009Z,14.21
2023-01-05T04:54:10.044Z,14.22
2023-01-05T04:56:37.639Z,14.21
2023-01-05T04:59:05.968Z,14.22
2023-01-05T05:01:34.766Z,14.22
2023-01-05T05:04:02.456Z,14.22
2023-01-05T05:06:29.754Z,14.22
2023-01-05T05:08:56.557Z,14.22
2023-01-05T05:11:25.626Z,14.22
2023-01-05T05:13:52.397Z,14.22
2023-01-05T05:16:19.234Z,14.22
2023-01-05T05:18:48.509Z,14.23
2023-01-05T05:21:23.151Z,14.23
2023-01-05T05:23:49.974Z,14.22
2023-01-05T05:26:16.777Z,14.23
2023-01-05T05:28:45.935Z,14.25
2023-01-05T05:31:12.648Z,14.24
2023-01-05T05:33:39.468Z,14.23
2023-01-05T05:36:06.662Z,14.23
2023-01-05T05:38:33.489Z,14.22
2023-01-05T05:41:00.193Z,14.23
2023-01-05T05:43:27.138Z,14.23
2023-01-05T05:45:53.837Z,14.22
2023-01-05T05:48:20.673Z,14.23
2023-01-05T05:50:47.551Z,14.22
2023-01-05T05:53:14.518Z,14.23
2023-01-05T05:55:41.317Z,14.22
2023-01-05T05:58:08.934Z,14.22
2023-01-05T06:00:35.634Z,14.22
2023-01-05T06:03:02.561Z,14.21
2023-01-05T06:05:29.374Z,14.21
2023-01-05T06:07:56.137Z,14.21
2023-01-05T06:10:23.076Z,14.22
2023-01-05T06:12:50.041Z,14.23
2023-01-05T06:15:16.838Z,14.22
2023-01-05T06:17:45.785Z,14.23
2023-01-05T06:20:12.677Z,14.23
2023-01-05T06:22:39.405Z,14.21
2023-01-05T06:25:06.450Z,14.22
2023-01-05T06:27:33.026Z,14.22
2023-01-05T06:29:59.763Z,14.10
2023-01-05T06:32:26.421Z,13.91
2023-01-05T06:34:53.071Z,13.78
2023-01-05T06:37:21.737Z,13.62
2023-01-05T06:39:48.521Z,13.56
2023-01-05T06:42:18.932Z,13.54
2023-01-05T06:44:48.324Z,13.41
2023-01-05T06:47:14.881Z,13.26
2023-01-05T06:49:41.495Z,13.26
2023-01-05T06:52:14.161Z,13.15
2023-01-05T06:54:42.877Z,13.05
2023-01-05T06:57:09.525Z,12.98
2023-01-05T06:59:36.159Z,12.99
2023-01-05T07:02:02.820Z,12.82
2023-01-05T07:04:29.549Z,12.79
2023-01-05T07:06:56.155Z,12.79
2023-01-05T07:09:22.735Z,12.76
2023-01-05T07:11:49.272Z,12.71
2023-01-05T07:14:16.126Z,12.73
2023-01-05T07:16:42.738Z,12.73
2023-01-05T07:19:10.255Z,12.66
2023-01-05T07:21:36.884Z,12.66
2023-01-05T07:24:03.930Z,12.64
2023-01-05T07:26:30.633Z,12.63
2023-01-05T07:28:58.593Z,12.62
2023-01-05T07:31:25.277Z,12.52
2023-01-05T07:33:51.864Z,12.54
2023-01-05T07:36:18.587Z,12.59
2023-01-05T07:38:45.195Z,12.58
2023-01-05T07:41:11.773Z,12.61
2023-01-05T07:43:38.318Z,12.54
2023-01-05T07:46:05.246Z,12.48
2023-01-05T07:48:31.875Z,12.46
2023-01-05T07:51:02.297Z,12.49
2023-01-05T07:53:36.761Z,12.47
2023-01-05T07:56:09.195Z,12.45
2023-01-05T07:58:35.983Z,12.42
2023-01-05T08:01:06.252Z,12.45
2023-01-05T08:03:33.212Z,12.53
2023-01-05T08:06:03.491Z,12.52
2023-01-05T08:08:30.145Z,12.54
2023-01-05T08:10:56.975Z,12.56
2023-01-05T08:13:42.065Z,12.57
2023-01-05T08:16:08.884Z,12.61
2023-01-05T08:18:35.480Z,12.62
2023-01-05T08:21:04.453Z,12.56
2023-01-05T08:23:31.714Z,12.57
2023-01-05T08:26:02.805Z,12.61
2023-01-05T08:28:35.230Z,12.65
2023-01-05T08:31:06.710Z,12.72
2023-01-05T08:33:33.783Z,12.81
2023-01-05T08:36:00.349Z,12.83
2023-01-05T08:38:27.095Z,12.88
2023-01-05T08:40:53.832Z,12.93
2023-01-05T08:43:20.675Z,12.96
2023-01-05T08:45:48.162Z,13.00
2023-01-05T08:48:14.838Z,13.06
2023-01-05T08:50:41.391Z,13.08
2023-01-05T08:53:08.027Z,13.12
2023-01-05T08:55:34.587Z,13.13
2023-01-05T08:58:01.219Z,13.19
2023-01-05T09:00:27.992Z,13.19
2023-01-05T09:02:54.736Z,13.20
2023-01-05T09:05:21.320Z,13.18
2023-01-05T09:07:48.116Z,13.18
2023-01-05T09:10:14.927Z,13.23
2023-01-05T09:12:41.626Z,13.18
2023-01-05T09:15:08.323Z,13.23
2023-01-05T09:17:38.416Z,13.27
2023-01-05T09:20:05.781Z,13.34
2023-01-05T09:22:36.184Z,13.34
2023-01-05T09:25:08.545Z,13.41
2023-01-05T09:27:44.457Z,13.44
2023-01-05T09:30:17.907Z,13.45
2023-01-05T09:32:47.969Z,13.50
2023-01-05T09:35:19.691Z,13.59
2023-01-05T09:37:47.196Z,13.64
2023-01-05T09:40:18.242Z,13.76
2023-01-05T09:42:50.014Z,13.81
2023-01-05T09:45:26.846Z,13.75
2023-01-05T09:47:55.612Z,13.75
2023-01-05T09:50:25.826Z,13.83
2023-01-05T09:52:53.565Z,13.86
2023-01-05T09:55:21.173Z,13.92
2023-01-05T09:57:54.019Z,13.95
2023-01-05T10:00:21.632Z,13.98
2023-01-05T10:02:53.144Z,14.04
2023-01-05T10:05:19.903Z,14.01
2023-01-05T10:07:49.503Z,14.03
2023-01-05T10:10:34.901Z,14.07
2023-01-05T10:13:05.528Z,14.06
2023-01-05T10:16:01.685Z,14.14
2023-01-05T10:18:28.687Z,14.02
2023-01-05T10:20:55.214Z,13.99
2023-01-05T10:23:24.369Z,13.96
2023-01-05T10:25:56.663Z,13.83
2023-01-05T10:28:56.724Z,13.66
2023-01-05T10:31:35.289Z,13.58
2023-01-05T10:34:08.915Z,13.56
2023-01-05T10:37:11.668Z,13.50
2023-01-05T10:39:52.460Z,13.66
2023-01-05T10:42:26.248Z,13.71
2023-01-05T10:45:02.558Z,13.66
2023-01-05T10:47:36.210Z,13.74
2023-01-05T10:50:03.083Z,13.74
2023-01-05T10:52:29.687Z,13.91
2023-01-05T10:54:57.810Z,14.06
2023-01-05T10:57:35.844Z,14.40
2023-01-05T11:00:15.527Z,14.80
2023-01-05T11:02:43.340Z,15.27
2023-01-05T11:05:09.952Z,15.61
2023-01-05T11:07:53.117Z,15.71
2023-01-05T11:10:29.092Z,15.80
2023-01-05T11:12:59.224Z,15.68
2023-01-05T11:15:25.826Z,15.57
2023-01-05T11:17:52.514Z,15.53
2023-01-05T11:20:19.291Z,15.54
2023-01-05T11:22:48.363Z,15.49
2023-01-05T11:25:36.043Z,15.51
2023-01-05T11:28:07.118Z,15.52
2023-01-05T11:30:35.050Z,15.51
2023-01-05T11:33:01.920Z,15.42
2023-01-05T11:35:31.953Z,15.37
2023-01-05T11:37:58.736Z,15.31
2023-01-05T11:40:30.261Z,15.15
2023-01-05T11:42:57.380Z,15.09
2023-01-05T11:45:28.693Z,15.14
2023-01-05T11:47:57.500Z,15.16
2023-01-05T11:50:47.384Z,15.19
2023-01-05T11:53:25.085Z,15.17
2023-01-05T11:56:12.022Z,15.13
2023-01-05T11:58:43.367Z,15.12
2023-01-05T12:01:16.399Z,15.07
2023-01-05T12:04:02.049Z,15.02
2023-01-05T12:06:31.980Z,14.91
2023-01-05T12:09:01.564Z,14.78
2023-01-05T12:11:28.468Z,14.77
2023-01-05T12:14:00.721Z,14.74
2023-01-05T12:16:27.482Z,14.65
2023-01-05T12:18:57.066Z,14.70
2023-01-05T12:21:31.422Z,14.77
2023-01-05T12:24:01.935Z,14.76
2023-01-05T12:26:29.839Z,14.87
2023-01-05T12:30:24.975Z,14.99
2023-01-05T12:34:53.736Z,15.24
2023-01-05T12:37:20.300Z,15.35
2023-01-05T12:39:54.312Z,15.46
2023-01-05T12:42:36.441Z,15.52
2023-01-05T12:45:29.662Z,15.53
2023-01-05T12:48:05.601Z,15.46
2023-01-05T12:50:34.312Z,15.36
2023-01-05T12:53:21.181Z,15.38
2023-01-05T12:55:52.707Z,15.25
2023-01-05T12:58:53.771Z,15.21
2023-01-05T13:01:23.511Z,15.19
2023-01-05T13:03:57.952Z,15.22
2023-01-05T13:06:24.761Z,15.13
2023-01-05T13:08:53.180Z,15.09
2023-01-05T13:11:22.039Z,15.01
2023-01-05T13:13:49.907Z,14.91
2023-01-05T13:16:23.248Z,14.88
2023-01-05T13:19:10.291Z,14.88
2023-01-05T13:21:37.598Z,14.92
2023-01-05T13:24:06.324Z,14.94
2023-01-05T13:26:37.938Z,14.96
2023-01-05T13:29:05.041Z,14.94
2023-01-05T13:31:34.692Z,14.92
2023-01-05T13:34:19.942Z,14.84
2023-01-05T13:36:52.561Z,14.77
2023-01-05T13:39:39.124Z,14.67
2023-01-05T13:42:08.183Z,14.61
2023-01-05T13:44:40.896Z,14.55
2023-01-05T13:47:16.199Z,14.55
2023-01-05T13:49:48.703Z,14.52
2023-01-05T13:52:17.913Z,14.53
2023-01-05T13:55:02.007Z,14.49
2023-01-05T13:57:30.671Z,14.42
2023-01-05T14:00:06.538Z,14.40
2023-01-05T14:02:43.995Z,14.38
2023-01-05T14:05:36.986Z,14.35
2023-01-05T14:08:04.547Z,14.33
2023-01-05T14:10:32.619Z,14.32
2023-01-05T14:12:59.413Z,14.25
2023-01-05T14:15:32.174Z,14.17
2023-01-05T14:17:59.341Z,14.11
2023-01-05T14:20:30.052Z,14.18
2023-01-05T14:22:56.965Z,14.26
2023-01-05T14:25:38.886Z,14.29
2023-01-05T14:28:24.525Z,14.28
2023-01-05T14:30:51.392Z,14.28
2023-01-05T14:33:18.869Z,14.31
2023-01-05T14:35:45.739Z,14.33
2023-01-05T14:38:21.345Z,14.34
2023-01-05T14:40:52.931Z,14.29
2023-01-05T14:43:19.488Z,14.21
2023-01-05T14:45:46.353Z,14.23
2023-01-05T14:48:27.414Z,14.24
2023-01-05T14:51:06.830Z,14.28
2023-01-05T14:53:37.928Z,14.24
2023-01-05T14:56:04.540Z,14.23
2023-01-05T14:58:37.373Z,14.22
2023-01-05T15:01:16.641Z,14.21
2023-01-05T15:03:52.932Z,14.22
2023-01-05T15:06:22.054Z,14.19
2023-01-05T15:09:01.244Z,14.15
2023-01-05T15:11:27.837Z,14.16
2023-01-05T15:14:31.911Z,14.15
2023-01-05T15:17:17.123Z,14.12
2023-01-05T15:19:46.721Z,14.03
2023-01-05T15:22:45.600Z,13.84
2023-01-05T15:25:16.167Z,13.81
2023-01-05T15:27:49.407Z,13.80
2023-01-05T15:30:16.037Z,13.80
2023-01-05T15:32:43.684Z,13.84
2023-01-05T15:35:20.979Z,13.89
2023-01-05T15:37:48.770Z,13.82
2023-01-05T15:40:15.392Z,13.81
2023-01-05T15:42:43.283Z,13.80
2023-01-05T15:45:16.670Z,13.78
2023-01-05T15:47:43.336Z,13.74
2023-01-05T15:50:16.344Z,13.71
2023-01-05T15:52:43.177Z,13.72
2023-01-05T15:55:12.845Z,13.68
2023-01-05T15:57:39.581Z,13.68
2023-01-05T16:00:20.252Z,13.68
2023-01-05T16:02:46.891Z,13.67
2023-01-05T16:05:18.162Z,13.69
2023-01-05T16:07:46.241Z,13.73
2023-01-05T16:10:16.767Z,13.72
2023-01-05T16:12:43.383Z,13.81
2023-01-05T16:15:11.718Z,13.84
2023-01-05T16:17:39.165Z,13.92
2023-01-05T16:20:11.895Z,13.98
2023-01-05T16:22:46.971Z,14.04
2023-01-05T16:25:21.239Z,14.10
2023-01-05T16:27:54.121Z,14.15
2023-01-05T16:30:27.177Z,14.21
2023-01-05T16:33:00.031Z,14.26
2023-01-05T16:35:30.382Z,14.30
2023-01-05T16:38:04.390Z,14.34
2023-01-05T16:40:31.036Z,14.38
2023-01-05T16:42:57.560Z,14.41
2023-01-05T16:45:25.088Z,14.44
2023-01-05T16:47:54.704Z,14.47
2023-01-05T16:50:21.500Z,14.50
2023-01-05T16:52:51.218Z,14.54
2023-01-05T16:55:29.189Z,14.54
2023-01-05T16:57:56.750Z,14.57
2023-01-05T17:00:26.834Z,14.58
2023-01-05T17:02:54.318Z,14.61
2023-01-05T17:05:24.800Z,14.61
2023-01-05T17:08:28.085Z,14.72
2023-01-05T17:10:55.033Z,14.66
2023-01-05T17:13:22.397Z,14.65
2023-01-05T17:15:50.195Z,14.67
2023-01-05T17:18:18.246Z,14.66
2023-01-05T17:20:45.626Z,14.68
2023-01-05T17:23:21.950Z,14.70
2023-01-05T17:25:48.650Z,14.72
2023-01-05T17:28:15.467Z,14.72
2023-01-05T17:30:42.437Z,14.74
2023-01-05T17:33:09.185Z,14.74
2023-01-05T17:35:36.074Z,14.75
2023-01-05T17:38:04.004Z,14.76
2023-01-05T17:40:31.168Z,14.77
2023-01-05T17:42:57.787Z,14.78
2023-01-05T17:45:27.190Z,14.79
2023-01-05T17:47:54.159Z,14.78
2023-01-05T17:50:27.833Z,14.79
2023-01-05T17:52:54.795Z,14.82
2023-01-05T17:55:21.535Z,14.80
2023-01-05T17:57:48.377Z,14.81
2023-01-05T18:00:22.746Z,14.81
2023-01-05T18:02:50.523Z,14.81
2023-01-05T18:05:17.362Z,14.81
2023-01-05T18:07:44.029Z,14.82
2023-01-05T18:10:12.957Z,14.82
2023-01-05T18:15:11.607Z,14.81
2023-01-05T18:17:38.409Z,14.82
2023-01-05T18:20:05.752Z,14.82
2023-01-05T18:22:32.676Z,14.82
2023-01-05T18:24:59.922Z,14.81
2023-01-05T18:27:26.459Z,14.82
2023-01-05T18:29:53.645Z,14.83
2023-01-05T18:32:20.258Z,14.83
2023-01-05T18:34:46.986Z,14.84
2023-01-05T18:37:21.564Z,14.84
2023-01-05T18:39:48.600Z,14.84
2023-01-05T18:42:15.278Z,14.83
2023-01-05T18:44:41.914Z,14.83
2023-01-05T18:47:08.817Z,14.82
2023-01-05T18:49:35.462Z,14.83
2023-01-05T18:52:02.054Z,14.84
2023-01-05T18:54:28.691Z,14.84
2023-01-05T18:56:55.264Z,14.84
2023-01-05T18:59:21.939Z,14.83
2023-01-05T19:01:48.494Z,14.84
2023-01-05T19:04:15.870Z,14.83
2023-01-05T19:06:42.589Z,14.84
2023-01-05T19:09:09.954Z,14.84
2023-01-05T19:11:37.075Z,14.84
2023-01-05T19:14:08.764Z,14.84
2023-01-05T19:16:39.259Z,14.85
2023-01-05T19:19:11.083Z,14.86
2023-01-05T19:21:38.615Z,14.85
2023-01-05T19:24:05.990Z,14.86
2023-01-05T19:26:33.018Z,14.87
2023-01-05T19:29:00.156Z,14.87
2023-01-05T19:31:28.029Z,14.88
2023-01-05T19:33:55.199Z,14.88
2023-01-05T19:36:22.489Z,14.88
2023-01-05T19:38:49.319Z,14.89
2023-01-05T19:41:27.405Z,14.89
2023-01-05T19:43:54.904Z,14.90
2023-01-05T19:46:22.071Z,14.89
2023-01-05T19:48:48.928Z,14.91
2023-01-05T19:51:16.251Z,14.92
2023-01-05T19:53:43.342Z,14.92
2023-01-05T19:56:13.529Z,14.93
2023-01-05T19:58:40.405Z,14.93
2023-01-05T20:01:16.574Z,14.93
2023-01-05T20:03:49.246Z,14.92
2023-01-05T20:06:18.127Z,14.92
2023-01-05T20:08:45.307Z,14.91
2023-01-05T20:11:12.929Z,14.93
2023-01-05T20:13:39.920Z,14.91
2023-01-05T20:16:11.633Z,14.93
2023-01-05T20:18:38.912Z,14.94
2023-01-05T20:21:06.131Z,14.93
2023-01-05T20:23:33.576Z,14.94
2023-01-05T20:26:03.927Z,14.94
2023-01-05T20:28:30.524Z,14.95
2023-01-05T20:30:57.189Z,14.96
2023-01-05T20:33:23.932Z,14.97
2023-01-05T20:35:50.451Z,14.98
2023-01-05T20:38:17.084Z,14.98
2023-01-05T20:40:43.683Z,14.98
2023-01-05T20:43:10.426Z,14.99
2023-01-05T20:45:37.001Z,14.99
2023-01-05T20:48:03.738Z,14.99
2023-01-05T20:50:30.260Z,15.00
2023-01-05T20:52:56.912Z,15.01
2023-01-05T20:55:23.603Z,15.02
2023-01-05T20:57:50.900Z,15.03
2023-01-05T21:00:18.256Z,15.04
2023-01-05T21:02:47.174Z,15.05
2023-01-05T21:05:15.157Z,15.05
2023-01-05T21:07:41.825Z,15.05
2023-01-05T21:10:08.772Z,15.06
2023-01-05T21:12:35.381Z,15.06
2023-01-05T21:15:01.998Z,15.05
2023-01-05T21:17:28.797Z,15.06
2023-01-05T21:19:55.392Z,15.06
2023-01-05T21:22:22.072Z,15.07
2023-01-05T21:24:48.708Z,15.06
2023-01-05T21:27:15.313Z,15.08
2023-01-05T21:29:41.840Z,15.08
2023-01-05T21:32:08.524Z,15.10
2023-01-05T21:34:35.126Z,15.11
2023-01-05T21:37:01.753Z,15.11
2023-01-05T21:39:28.629Z,15.11
2023-01-05T21:42:13.837Z,15.11
2023-01-05T21:44:40.720Z,15.11
2023-01-05T21:47:07.469Z,15.11
2023-01-05T21:49:34.553Z,15.12
2023-01-05T21:52:19.681Z,15.12
2023-01-05T21:55:04.970Z,15.14
2023-01-05T21:57:37.494Z,15.13
2023-01-05T22:00:06.186Z,15.13
2023-01-05T22:02:37.490Z,15.12
2023-01-05T22:05:04.306Z,15.12
2023-01-05T22:07:30.885Z,15.13
2023-01-05T22:09:57.539Z,15.14
2023-01-05T22:12:24.096Z,15.15
2023-01-05T22:14:50.756Z,15.15
2023-01-05T22:17:17.323Z,15.17
2023-01-05T22:19:43.983Z,15.17
2023-01-05T22:22:10.524Z,15.17
2023-01-05T22:24:38.460Z,15.18
2023-01-05T22:27:05.092Z,15.19
2023-01-05T22:29:31.732Z,15.18
2023-01-05T22:31:59.133Z,15.18
2023-01-05T22:34:27.130Z,15.18
2023-01-05T22:36:53.883Z,15.17
2023-01-05T22:39:20.580Z,15.19
2023-01-05T22:41:48.553Z,15.19
2023-01-05T22:44:15.189Z,15.20
2023-01-05T22:46:41.815Z,15.19
2023-01-05T22:49:09.199Z,15.20
2023-01-05T22:51:36.914Z,15.20
2023-01-05T22:54:04.076Z,15.22
2023-01-05T22:56:31.896Z,15.20
2023-01-05T22:58:58.726Z,15.21
2023-01-05T23:01:26.925Z,15.22
2023-01-05T23:03:54.197Z,15.21
2023-01-05T23:06:20.984Z,15.21
2023-01-05T23:08:48.696Z,15.21
2023-01-05T23:11:16.552Z,15.20
2023-01-05T23:13:43.216Z,15.20
2023-01-05T23:16:10.104Z,15.19
2023-01-05T23:18:37.248Z,15.22
2023-01-05T23:21:05.960Z,15.22
2023-01-05T23:23:32.860Z,15.22
2023-01-05T23:25:59.451Z,15.23
2023-01-05T23:28:26.805Z,15.23
2023-01-05T23:30:54.341Z,15.22
2023-01-05T23:33:21.533Z,15.22
2023-01-05T23:35:49.858Z,15.23
2023-01-05T23:38:16.508Z,15.21
2023-01-05T23:40:43.531Z,15.23
2023-01-05T23:43:14.244Z,15.22
2023-01-05T23:45:43.015Z,15.22
2023-01-05T23:48:09.946Z,15.21
2023-01-05T23:50:49.912Z,15.21
2023-01-05T23:53:17.893Z,15.19
2023-01-05T23:55:44.516Z,15.18
2023-01-05T23:58:11.219Z,15.19
